Route Details

Aircraft Information
Group: European Fleet
Types: A30F, A31F, B738
Route Data
Distance: 210nm
Duration: 0h 45m
Origin METAR: LFPG 080030Z 03006KT CAVOK M00/M04 Q1036 NOSIG
Dest. METAR: EDDK 080050Z AUTO VRB01KT CAVOK M03/M07 Q1039 NOSIG
Freight Data
(for Feb 8, 2023)
Load Factor:
101%
Manifested Cargo: 63,489lbs
Financial History
Total Freight: 482,391lbs
Average Load: 0lbs/flt
Fuel Used: 113,579lbs
Avg. Fuel Used: 0lbs/flt
Fuel Expense: $44,941
Avg. Fuel Expense: $0
Avg. Fuel Cost: $0/lbs
Total Gross Income: $1,064,514
Pilot Pay: $1,972
Total Expenses: $199,136
Total Revenue: $818,279
Average Revenue: $0

Capitol Logistics 590




LFPG
Charles de Gaulle
Paris, FR
EDDK
Cologne Bonn Airport
Cologne, DE